Northwest, Indiana
Current Conditions -  °F | °C
As of 9:35 PM on Friday 21 Nov 2014 (Local Time) from KDCY Reporting Station
Overcast Overcast  
Wind Chill: 28°   Ceiling: 3800
Heat Index: 35°   Visibility: 10mi
Dew Point: 22°   Wind: 8mph
Humidity: 60%   Direction: 130°SE
Pressure: 30.35"   Gusts: NA
Location:  38.6165°N, 86.6265°W
Report Text: KDCY 220235Z AUTO 13007KT 10SM OVC038 02/M05 A3035 RMK AO2 T00161055
Loading
Personal Weather Stations






























Interactive Weather Map New forecast layout! Learn more

10-Day Weather Forecast

Advertisements
Track Severe Weather on mobile